Indian Island, Washington
Current Conditions -  °F | °C
As of 3:56 AM on Sunday 23 Nov 2014 (Local Time) from KNUW Reporting Station
Overcast Overcast  
Wind Chill: 43°   Ceiling: 4000
Heat Index: 48°   Visibility: 10mi
Dew Point: 44°   Wind: 13mph
Humidity: 86%   Direction: 120°ESE
Pressure: 30.05"   Gusts: NA
Location:  48.0545°N, 122.706°W
Report Text: KNUW 231156Z 12011KT 10SM FEW020 BKN040 OVC080 09/07 A3005 RMK AO2 RAE53 SLP178 P0004 60012 70023 T00890067 10100 20089 58019 $
Loading
Personal Weather Stations






























Interactive Weather Map New forecast layout! Learn more

10-Day Weather Forecast

Advertisements
Track Severe Weather on mobile